Time;durP1;ratioP1;P1;durP2;ratioP2;P2;SDS_P1;SDS_P2;PMS_P1;PMS_P2;Temp;Humidity;BMP_temperature;BMP_pressure;BME280_temperature;BME280_humidity;BME280_pressure;Samples;Min_cycle;Max_cycle;Signal;HPM_P1;HPM_P2
2022/07/01 00:01:59;;;;;;;12.60;7.97;;;26.00;49.30;;;;;;5073347;28;20485;-43
2022/07/01 00:04:27;;;;;;;10.80;7.90;;;26.10;49.10;;;;;;5073106;28;20928;-44
2022/07/01 00:06:56;;;;;;;10.13;7.77;;;26.00;49.20;;;;;;5072986;28;20458;-44
2022/07/01 00:09:23;;;;;;;8.90;7.03;;;26.00;49.30;;;;;;5072953;28;21005;-44
2022/07/01 00:11:50;;;;;;;10.00;8.20;;;26.00;49.20;;;;;;5073011;28;20922;-44
2022/07/01 00:14:16;;;;;;;9.10;6.53;;;26.00;49.40;;;;;;5072915;28;20418;-44
2022/07/01 00:16:42;;;;;;;9.10;6.80;;;25.90;49.00;;;;;;5072626;28;20407;-44
2022/07/01 00:19:08;;;;;;;10.73;8.47;;;25.90;49.00;;;;;;5072929;28;20811;-44
2022/07/01 00:21:34;;;;;;;10.23;7.43;;;25.80;49.10;;;;;;5073126;28;20415;-44
2022/07/01 00:24:00;;;;;;;9.37;7.30;;;25.80;49.10;;;;;;5072774;28;20181;-43
2022/07/01 00:26:26;;;;;;;11.77;8.60;;;25.80;49.30;;;;;;5072727;28;20460;-44
2022/07/01 00:28:52;;;;;;;11.03;8.27;;;25.70;49.30;;;;;;5072869;28;20514;-43
2022/07/01 00:31:17;;;;;;;13.40;8.77;;;25.70;49.20;;;;;;5072622;28;20208;-45
2022/07/01 00:33:43;;;;;;;9.33;8.20;;;25.70;49.30;;;;;;5072812;28;20173;-45
2022/07/01 00:36:09;;;;;;;9.93;7.90;;;25.60;49.40;;;;;;5072408;28;20540;-44
2022/07/01 00:38:35;;;;;;;9.47;8.47;;;25.60;49.50;;;;;;5072473;28;20234;-45
2022/07/01 00:41:01;;;;;;;10.97;8.37;;;25.60;49.30;;;;;;5072546;28;20763;-43
2022/07/01 00:43:27;;;;;;;10.70;7.50;;;25.60;49.50;;;;;;5072455;28;20403;-42
2022/07/01 00:45:53;;;;;;;10.30;8.30;;;25.60;49.40;;;;;;5072039;28;20219;-44
2022/07/01 00:48:21;;;;;;;9.80;7.60;;;25.60;49.50;;;;;;5072609;28;20407;-44
2022/07/01 00:50:47;;;;;;;9.40;8.07;;;25.60;49.50;;;;;;5072315;28;20946;-44
2022/07/01 00:53:14;;;;;;;8.30;6.57;;;25.50;49.50;;;;;;5072640;28;20498;-43
2022/07/01 00:55:41;;;;;;;11.33;7.87;;;25.50;49.50;;;;;;5072019;28;20406;-45
2022/07/01 00:58:08;;;;;;;10.90;8.10;;;25.40;49.60;;;;;;5072444;28;20426;-44
2022/07/01 01:00:36;;;;;;;12.87;10.03;;;25.40;49.70;;;;;;5072204;28;20512;-45
2022/07/01 01:03:01;;;;;;;12.60;8.50;;;25.40;49.70;;;;;;5072253;28;20402;-45
2022/07/01 01:05:27;;;;;;;10.80;8.00;;;25.30;49.80;;;;;;5072159;28;20773;-43
2022/07/01 01:07:53;;;;;;;9.50;7.20;;;25.30;49.80;;;;;;5072060;28;20993;-44
2022/07/01 01:10:20;;;;;;;9.33;6.70;;;25.30;49.80;;;;;;5071677;28;20197;-44
2022/07/01 01:12:46;;;;;;;10.17;7.83;;;25.40;49.90;;;;;;5072102;28;20731;-44
2022/07/01 01:15:18;;;;;;;10.40;7.97;;;25.30;49.90;;;;;;5072300;28;20413;-44
2022/07/01 01:17:44;;;;;;;11.03;7.83;;;25.30;50.10;;;;;;5072192;28;20196;-44
2022/07/01 01:20:15;;;;;;;10.97;8.13;;;25.30;50.20;;;;;;5071887;28;20493;-43
2022/07/01 01:22:42;;;;;;;8.30;7.50;;;25.30;50.40;;;;;;5072170;28;20200;-43
2022/07/01 01:25:08;;;;;;;9.77;7.40;;;25.20;50.30;;;;;;5071973;28;20441;-44
2022/07/01 01:27:34;;;;;;;11.77;8.60;;;25.20;50.30;;;;;;5071611;28;20502;-43
2022/07/01 01:29:59;;;;;;;10.43;8.27;;;25.20;50.50;;;;;;5071807;28;20441;-43
2022/07/01 01:32:25;;;;;;;9.60;7.33;;;25.20;50.40;;;;;;5072087;28;20208;-44
2022/07/01 01:34:51;;;;;;;10.37;8.00;;;25.10;50.60;;;;;;5071883;28;20177;-43
2022/07/01 01:37:17;;;;;;;10.80;9.10;;;25.10;50.40;;;;;;5071768;28;20263;-45
2022/07/01 01:39:43;;;;;;;9.20;7.47;;;25.20;50.50;;;;;;5071825;28;20201;-45
2022/07/01 01:42:08;;;;;;;10.57;8.17;;;25.10;50.70;;;;;;5071788;28;20438;-44
2022/07/01 01:44:34;;;;;;;13.63;9.40;;;25.00;50.70;;;;;;5072044;28;20263;-43
2022/07/01 01:47:01;;;;;;;10.20;8.53;;;25.00;50.70;;;;;;5071474;28;20586;-44
2022/07/01 01:49:26;;;;;;;10.53;8.10;;;25.00;50.70;;;;;;5071755;28;20197;-44
2022/07/01 01:51:52;;;;;;;10.00;6.80;;;25.00;50.80;;;;;;5072047;28;20886;-43
2022/07/01 01:54:18;;;;;;;9.43;7.40;;;25.00;50.60;;;;;;5071720;28;20175;-44
2022/07/01 01:56:44;;;;;;;11.47;8.33;;;25.00;50.70;;;;;;5071674;28;20825;-43
2022/07/01 01:59:12;;;;;;;10.73;8.67;;;25.00;50.70;;;;;;5071753;28;20205;-45
2022/07/01 02:01:38;;;;;;;10.50;9.00;;;25.00;50.60;;;;;;5071591;28;20215;-43
2022/07/01 02:04:04;;;;;;;11.37;8.00;;;24.90;50.70;;;;;;5071721;28;20442;-45
2022/07/01 02:06:30;;;;;;;9.47;8.20;;;24.90;50.80;;;;;;5071260;28;20958;-44
2022/07/01 02:08:56;;;;;;;11.10;8.27;;;24.90;50.80;;;;;;5071402;28;20521;-45
2022/07/01 02:11:22;;;;;;;11.50;8.77;;;24.90;50.80;;;;;;5071457;28;20541;-44
2022/07/01 02:13:48;;;;;;;9.70;7.80;;;24.80;50.90;;;;;;5071796;28;20177;-45
2022/07/01 02:16:13;;;;;;;10.77;8.33;;;24.80;51.10;;;;;;5071303;28;20718;-45
2022/07/01 02:18:39;;;;;;;10.60;8.07;;;24.80;51.30;;;;;;5071272;28;20173;-44
2022/07/01 02:21:05;;;;;;;12.20;7.83;;;24.70;51.30;;;;;;5071628;28;20544;-43
2022/07/01 02:23:31;;;;;;;12.47;8.47;;;24.70;51.30;;;;;;5075083;28;20418;-43
2022/07/01 02:25:57;;;;;;;10.70;7.50;;;24.70;51.20;;;;;;5074745;28;20197;-43
2022/07/01 02:28:22;;;;;;;11.43;8.10;;;24.70;51.10;;;;;;5074920;28;20177;-45
2022/07/01 02:30:48;;;;;;;10.97;7.70;;;24.70;51.00;;;;;;5075230;28;20197;-44
2022/07/01 02:33:14;;;;;;;15.97;7.97;;;24.60;51.00;;;;;;5075088;28;20164;-44
2022/07/01 02:35:41;;;;;;;10.10;7.90;;;24.60;51.30;;;;;;5074739;28;20890;-44
2022/07/01 02:38:08;;;;;;;12.27;9.10;;;24.60;51.40;;;;;;5074833;28;20173;-44
2022/07/01 02:40:37;;;;;;;9.30;7.20;;;24.50;51.30;;;;;;5075042;28;20430;-43
2022/07/01 02:43:04;;;;;;;10.80;9.07;;;24.50;51.20;;;;;;5074890;28;20801;-44
2022/07/01 02:45:30;;;;;;;11.63;8.17;;;24.50;51.10;;;;;;5074620;28;20422;-46
2022/07/01 02:47:55;;;;;;;9.73;7.00;;;24.50;51.20;;;;;;5074511;28;20454;-44
2022/07/01 02:50:21;;;;;;;12.83;8.73;;;24.50;51.10;;;;;;5074873;28;20197;-44
2022/07/01 02:52:47;;;;;;;11.73;7.93;;;24.40;51.20;;;;;;5074502;28;20175;-44
2022/07/01 02:55:14;;;;;;;11.00;8.37;;;24.40;51.40;;;;;;5074487;28;20906;-44
2022/07/01 02:57:41;;;;;;;11.30;8.20;;;24.40;51.30;;;;;;5074559;28;20406;-44
2022/07/01 03:00:13;;;;;;;10.90;7.83;;;24.40;51.50;;;;;;5074422;28;20458;-43
2022/07/01 03:02:39;;;;;;;12.80;8.57;;;24.40;51.50;;;;;;5074450;28;20403;-45
2022/07/01 03:05:06;;;;;;;10.40;7.20;;;24.40;51.60;;;;;;5074450;28;20917;-45
2022/07/01 03:07:31;;;;;;;10.03;7.90;;;24.40;51.40;;;;;;5073969;28;20524;-44
2022/07/01 03:09:57;;;;;;;11.40;9.10;;;24.40;51.40;;;;;;5074247;28;20427;-44
2022/07/01 03:12:29;;;;;;;13.97;8.23;;;24.40;51.30;;;;;;5074157;28;20263;-44
2022/07/01 03:15:00;;;;;;;11.53;10.07;;;24.40;51.40;;;;;;5074391;28;20176;-45
2022/07/01 03:17:28;;;;;;;8.87;7.77;;;24.40;51.30;;;;;;5073961;28;20782;-44
2022/07/01 03:19:55;;;;;;;9.87;7.40;;;24.40;51.30;;;;;;5073847;28;20458;-43
2022/07/01 03:22:23;;;;;;;10.60;7.57;;;24.30;51.40;;;;;;5074308;28;20406;-43
2022/07/01 03:24:49;;;;;;;11.93;8.37;;;24.40;51.60;;;;;;5074412;28;20468;-43
2022/07/01 03:27:16;;;;;;;10.00;8.23;;;24.30;51.50;;;;;;5073678;28;20491;-44
2022/07/01 03:29:42;;;;;;;11.53;8.07;;;24.40;51.70;;;;;;5073814;28;20434;-43
2022/07/01 03:32:09;;;;;;;11.23;8.60;;;24.40;51.50;;;;;;5073516;28;20410;-43
2022/07/01 03:34:40;;;;;;;12.20;8.03;;;24.30;51.60;;;;;;5073818;28;20419;-44
2022/07/01 03:37:07;;;;;;;10.90;9.03;;;24.30;51.70;;;;;;5073670;28;20426;-45
2022/07/01 03:39:34;;;;;;;11.37;9.00;;;24.30;51.70;;;;;;5073789;28;20431;-45
2022/07/01 03:42:00;;;;;;;12.20;8.40;;;24.40;52.60;;;;;;5073539;28;20407;-45
2022/07/01 03:44:26;;;;;;;10.27;8.63;;;24.40;52.10;;;;;;5073540;28;20926;-44
2022/07/01 03:46:52;;;;;;;11.23;9.77;;;24.40;52.10;;;;;;5073155;28;20980;-45
2022/07/01 03:49:18;;;;;;;12.40;8.60;;;24.50;52.20;;;;;;5073671;28;20426;-44
2022/07/01 03:51:44;;;;;;;10.53;8.00;;;24.50;52.40;;;;;;5073442;28;20403;-45
2022/07/01 03:56:53;;;;;;;9.67;7.47;;;24.60;52.40;;;;;;5073400;28;20188;-44
2022/07/01 03:59:19;;;;;;;12.57;7.67;;;24.70;52.50;;;;;;5073191;28;20439;-43
2022/07/01 04:01:45;;;;;;;10.13;8.03;;;24.70;52.60;;;;;;5073253;28;20185;-44
2022/07/01 04:04:11;;;;;;;13.30;9.70;;;24.80;52.60;;;;;;5073371;28;20176;-44
2022/07/01 04:06:37;;;;;;;11.83;8.10;;;24.90;52.70;;;;;;5072908;28;20265;-44
2022/07/01 04:09:03;;;;;;;12.47;8.30;;;24.90;52.70;;;;;;5075088;28;20204;-45
2022/07/01 04:11:29;;;;;;;10.07;7.70;;;25.00;52.60;;;;;;5074976;28;20403;-44
2022/07/01 04:13:55;;;;;;;12.40;8.40;;;25.10;52.60;;;;;;5074781;28;20755;-44
2022/07/01 04:16:23;;;;;;;10.40;7.93;;;25.20;52.50;;;;;;5075001;28;20525;-46
2022/07/01 04:18:49;;;;;;;14.50;8.97;;;25.30;52.40;;;;;;5074723;28;20438;-44
2022/07/01 04:23:59;;;;;;;11.33;7.23;;;25.40;52.30;;;;;;5075529;28;20410;-44
2022/07/01 04:26:26;;;;;;;11.03;8.60;;;25.40;52.10;;;;;;5074764;28;20451;-43
2022/07/01 04:28:54;;;;;;;9.97;7.97;;;25.40;52.10;;;;;;5073554;28;20688;-44
2022/07/01 04:31:20;;;;;;;10.27;7.33;;;25.40;52.10;;;;;;5072810;28;20495;-44
2022/07/01 04:33:48;;;;;;;9.50;8.57;;;25.50;52.10;;;;;;5072891;28;20418;-44
2022/07/01 04:36:14;;;;;;;9.27;7.83;;;25.50;51.90;;;;;;5072635;28;20438;-45
2022/07/01 04:38:39;;;;;;;11.30;7.97;;;25.60;52.10;;;;;;5072741;28;20441;-44
2022/07/01 04:43:49;;;;;;;8.87;6.97;;;25.60;52.10;;;;;;5072415;28;20410;-45
2022/07/01 04:46:15;;;;;;;15.07;7.80;;;25.60;52.00;;;;;;5071896;28;20865;-45
2022/07/01 04:48:41;;;;;;;10.47;6.87;;;25.70;51.90;;;;;;5072250;28;20169;-44
2022/07/01 04:51:07;;;;;;;11.20;7.97;;;25.80;51.70;;;;;;5072634;28;20222;-45
2022/07/01 04:53:33;;;;;;;9.97;7.90;;;25.80;51.70;;;;;;5072205;28;20429;-45
2022/07/01 04:55:59;;;;;;;9.70;7.60;;;25.90;51.40;;;;;;5072044;28;20446;-45
2022/07/01 04:58:27;;;;;;;6.17;5.17;;;26.00;51.70;;;;;;5072486;28;20431;-45
2022/07/01 05:00:53;;;;;;;9.60;7.13;;;26.10;51.40;;;;;;5072428;28;20168;-44
2022/07/01 05:03:19;;;;;;;12.80;7.83;;;26.20;51.10;;;;;;5072151;28;20902;-44
2022/07/01 05:05:45;;;;;;;7.80;7.00;;;26.20;50.90;;;;;;5071824;28;20179;-45
2022/07/01 05:08:10;;;;;;;12.37;8.80;;;26.30;50.90;;;;;;5072081;28;20399;-45
2022/07/01 05:10:36;;;;;;;12.40;8.37;;;26.30;50.90;;;;;;5072320;28;20706;-43
2022/07/01 05:13:02;;;;;;;10.53;6.73;;;26.40;50.90;;;;;;5072126;28;20180;-45
2022/07/01 05:15:29;;;;;;;10.87;6.83;;;26.50;50.60;;;;;;5072169;28;20454;-45
2022/07/01 05:23:23;;;;;;;10.80;8.20;;;26.70;50.10;;;;;;5072171;28;20436;-44
2022/07/01 05:25:49;;;;;;;9.33;6.53;;;26.90;49.90;;;;;;5071933;28;20411;-44
2022/07/01 05:28:14;;;;;;;9.07;6.90;;;27.00;50.00;;;;;;5072074;28;20418;-44
2022/07/01 05:30:40;;;;;;;8.70;7.20;;;27.00;49.90;;;;;;5071838;28;20219;-44
2022/07/01 05:33:06;;;;;;;15.50;6.43;;;27.20;49.50;;;;;;5071767;28;20165;-45
2022/07/01 05:35:32;;;;;;;8.70;7.60;;;27.30;49.70;;;;;;5071814;28;20658;-44
2022/07/01 05:37:58;;;;;;;14.23;7.13;;;27.40;50.20;;;;;;5072007;28;20187;-45
2022/07/01 05:40:25;;;;;;;7.07;6.27;;;27.50;48.70;;;;;;5071751;28;20196;-44
2022/07/01 05:42:52;;;;;;;8.63;7.10;;;27.50;48.50;;;;;;5071858;28;20403;-45
2022/07/01 05:45:18;;;;;;;10.10;7.10;;;27.60;48.60;;;;;;5071515;28;20406;-45
2022/07/01 05:47:44;;;;;;;7.70;6.70;;;27.70;48.20;;;;;;5071198;28;20443;-45
2022/07/01 05:50:09;;;;;;;10.57;7.13;;;27.70;47.80;;;;;;5071713;28;20427;-45
2022/07/01 05:52:35;;;;;;;9.23;8.00;;;27.80;47.10;;;;;;5071528;28;20919;-45
2022/07/01 05:55:01;;;;;;;8.70;7.47;;;27.80;46.20;;;;;;5071602;28;20169;-43
2022/07/01 05:57:27;;;;;;;9.60;6.50;;;27.80;45.90;;;;;;5075383;28;20180;-43
2022/07/01 05:59:52;;;;;;;11.60;7.40;;;27.80;46.00;;;;;;5075748;28;20189;-43
2022/07/01 06:02:18;;;;;;;8.33;6.60;;;27.80;46.40;;;;;;5075509;28;20688;-45
2022/07/01 06:04:44;;;;;;;9.33;7.47;;;27.80;46.30;;;;;;5075531;28;20644;-44
2022/07/01 06:07:10;;;;;;;8.93;8.03;;;27.80;46.60;;;;;;5075337;28;20255;-47
2022/07/01 06:09:37;;;;;;;7.13;6.43;;;27.80;46.80;;;;;;5075366;28;20846;-47
2022/07/01 06:12:04;;;;;;;10.90;7.23;;;27.90;46.30;;;;;;5075631;28;20164;-47
2022/07/01 06:14:29;;;;;;;7.53;6.60;;;27.90;46.10;;;;;;5075298;28;20414;-47
2022/07/01 06:16:55;;;;;;;9.03;7.80;;;27.80;45.70;;;;;;5075118;28;20410;-46
2022/07/01 06:19:21;;;;;;;10.20;8.83;;;27.80;45.50;;;;;;5074929;28;20212;-47
2022/07/01 06:21:46;;;;;;;11.20;8.87;;;27.70;45.00;;;;;;5075370;28;20177;-46
2022/07/01 06:24:13;;;;;;;11.97;9.40;;;27.60;45.00;;;;;;5075073;28;20172;-46
2022/07/01 06:26:38;;;;;;;12.77;8.40;;;27.50;45.30;;;;;;5074827;28;20295;-45
2022/07/01 06:29:04;;;;;;;12.33;7.90;;;27.50;45.50;;;;;;5074999;28;20442;-47
2022/07/01 06:31:33;;;;;;;14.03;8.67;;;27.40;45.60;;;;;;5074926;28;20177;-45
2022/07/01 06:33:58;;;;;;;8.63;7.57;;;27.30;45.80;;;;;;5074909;28;20306;-45
2022/07/01 06:36:24;;;;;;;8.87;7.50;;;27.40;45.90;;;;;;5074573;28;20476;-45
2022/07/01 06:38:50;;;;;;;10.20;8.07;;;27.40;46.00;;;;;;5074793;28;20279;-45
2022/07/01 06:41:27;;;;;;;10.00;9.00;;;27.40;46.30;;;;;;5074924;28;20274;-44
2022/07/01 06:43:58;;;;;;;9.50;8.10;;;27.40;46.50;;;;;;5075003;28;20160;-44
2022/07/01 06:46:24;;;;;;;16.23;10.30;;;27.50;46.30;;;;;;5074612;28;20515;-45
2022/07/01 06:48:51;;;;;;;11.00;9.73;;;27.50;46.20;;;;;;5074681;28;20426;-44
2022/07/01 06:51:17;;;;;;;9.37;8.37;;;27.50;46.30;;;;;;5074793;28;20407;-45
2022/07/01 06:53:44;;;;;;;13.67;8.87;;;27.50;46.10;;;;;;5074646;28;20442;-45
2022/07/01 06:56:11;;;;;;;11.90;9.13;;;27.60;46.10;;;;;;5074363;28;20486;-45
2022/07/01 06:58:37;;;;;;;9.97;8.30;;;27.60;45.80;;;;;;5074308;28;20927;-45
2022/07/01 07:01:04;;;;;;;10.40;8.37;;;27.60;45.50;;;;;;5074496;28;20413;-43
2022/07/01 07:03:31;;;;;;;14.00;9.30;;;27.60;45.40;;;;;;5074533;28;20403;-44
2022/07/01 07:06:00;;;;;;;10.67;9.50;;;27.60;45.20;;;;;;5073962;28;20402;-45
2022/07/01 07:08:26;;;;;;;10.03;8.20;;;27.60;44.80;;;;;;5073605;28;20414;-45
2022/07/01 07:10:52;;;;;;;10.80;8.70;;;27.60;44.80;;;;;;5074383;28;20833;-43
2022/07/01 07:13:18;;;;;;;11.17;8.60;;;27.50;45.30;;;;;;5074125;28;20490;-44
2022/07/01 07:15:44;;;;;;;16.77;8.47;;;27.50;45.10;;;;;;5074010;28;20169;-43
2022/07/01 07:18:10;;;;;;;10.83;8.33;;;27.50;45.20;;;;;;5074382;28;20736;-44
2022/07/01 07:20:36;;;;;;;9.23;7.63;;;27.40;44.90;;;;;;5073855;28;20453;-43
2022/07/01 07:23:02;;;;;;;16.70;8.10;;;27.30;45.10;;;;;;5074288;28;20435;-43
2022/07/01 07:25:28;;;;;;;10.40;7.97;;;27.30;45.10;;;;;;5073948;28;20469;-44
2022/07/01 07:27:54;;;;;;;12.53;9.00;;;27.30;45.20;;;;;;5073867;28;20833;-45
2022/07/01 07:30:20;;;;;;;11.23;8.90;;;27.20;44.90;;;;;;5073808;28;20725;-44
2022/07/01 07:32:46;;;;;;;11.80;8.40;;;27.20;45.00;;;;;;5074009;28;20200;-44
2022/07/01 07:35:12;;;;;;;10.10;7.83;;;27.10;44.80;;;;;;5073722;28;20446;-45
2022/07/01 07:37:39;;;;;;;10.40;8.27;;;27.00;45.30;;;;;;5073890;28;20575;-46
2022/07/01 07:40:07;;;;;;;9.43;8.30;;;27.00;45.80;;;;;;5073773;28;20427;-43
2022/07/01 07:42:34;;;;;;;9.50;8.53;;;26.90;45.30;;;;;;5073925;28;20403;-44
2022/07/01 07:44:59;;;;;;;13.63;8.97;;;26.90;45.10;;;;;;5073909;28;20419;-45
2022/07/01 07:47:25;;;;;;;8.50;7.03;;;26.90;44.70;;;;;;5073407;28;20552;-44
2022/07/01 07:49:51;;;;;;;10.97;8.50;;;26.80;45.20;;;;;;5073670;28;20427;-44
2022/07/01 07:52:17;;;;;;;9.40;8.20;;;26.80;44.90;;;;;;5073385;28;20165;-44
2022/07/01 07:54:42;;;;;;;8.90;7.40;;;26.70;44.30;;;;;;5073366;28;20264;-44
2022/07/01 07:57:08;;;;;;;12.23;7.90;;;26.60;44.60;;;;;;5073091;28;20271;-45
2022/07/01 07:59:35;;;;;;;12.80;9.80;;;26.50;44.70;;;;;;5073415;28;20279;-43
2022/07/01 08:02:01;;;;;;;12.00;8.17;;;26.50;44.60;;;;;;5073397;28;20811;-44
2022/07/01 08:04:27;;;;;;;10.83;7.43;;;26.40;45.10;;;;;;5073154;28;20418;-43
2022/07/01 08:06:53;;;;;;;13.43;9.30;;;26.40;45.10;;;;;;5073117;28;20446;-43
2022/07/01 08:09:19;;;;;;;12.00;8.87;;;26.30;45.30;;;;;;5072970;28;20946;-44
2022/07/01 08:11:44;;;;;;;9.53;8.33;;;26.30;45.40;;;;;;5073288;28;20414;-44
2022/07/01 08:14:11;;;;;;;12.37;7.97;;;26.30;45.20;;;;;;5073220;28;20280;-45
2022/07/01 08:16:37;;;;;;;10.33;8.20;;;26.30;45.60;;;;;;5073097;28;20498;-45
2022/07/01 08:19:03;;;;;;;10.13;8.53;;;26.20;45.20;;;;;;5071767;28;20533;-45
2022/07/01 08:21:30;;;;;;;15.77;9.07;;;26.20;45.30;;;;;;5072796;28;20403;-45
2022/07/01 08:23:55;;;;;;;12.07;8.07;;;26.20;45.60;;;;;;5072816;28;20899;-44
2022/07/01 08:26:21;;;;;;;10.80;9.60;;;26.20;45.40;;;;;;5072694;28;20454;-44
2022/07/01 08:28:47;;;;;;;13.47;7.87;;;26.10;45.30;;;;;;5072668;28;20922;-45
2022/07/01 08:31:13;;;;;;;15.47;8.60;;;26.10;45.80;;;;;;5071439;28;20411;-46
2022/07/01 08:33:41;;;;;;;13.63;8.00;;;26.00;45.70;;;;;;5072685;28;20262;-45
2022/07/01 08:36:08;;;;;;;10.83;8.03;;;26.10;45.40;;;;;;5072475;28;21035;-45
2022/07/01 08:38:35;;;;;;;9.63;7.47;;;26.10;45.20;;;;;;5072424;28;20399;-44
2022/07/01 08:41:01;;;;;;;13.67;10.10;;;26.00;45.10;;;;;;5072503;28;20410;-45
2022/07/01 08:43:28;;;;;;;10.37;8.23;;;26.00;45.30;;;;;;5072483;28;20403;-45
2022/07/01 08:45:54;;;;;;;12.33;10.03;;;25.90;45.00;;;;;;5072268;28;20485;-44
2022/07/01 08:48:20;;;;;;;18.93;10.00;;;26.00;45.80;;;;;;5072641;28;20406;-46
2022/07/01 08:50:46;;;;;;;12.03;9.30;;;26.00;45.60;;;;;;5072305;28;20506;-43
2022/07/01 08:53:13;;;;;;;16.33;11.00;;;26.00;45.60;;;;;;5072297;28;20435;-43
2022/07/01 08:58:26;;;;;;;13.30;9.10;;;25.90;45.60;;;;;;5072361;28;20398;-44
2022/07/01 09:00:52;;;;;;;14.27;9.10;;;26.00;46.10;;;;;;5072330;28;20407;-44
2022/07/01 09:03:23;;;;;;;11.47;8.20;;;26.10;46.10;;;;;;5072225;28;20890;-44
2022/07/01 09:05:52;;;;;;;9.97;7.47;;;26.10;46.00;;;;;;5072018;28;20410;-44
2022/07/01 09:08:19;;;;;;;13.20;8.10;;;26.10;45.80;;;;;;5072065;28;20778;-44
2022/07/01 09:10:45;;;;;;;14.80;10.40;;;26.10;45.80;;;;;;5072947;28;20763;-43
2022/07/01 09:13:13;;;;;;;12.83;8.57;;;26.00;45.80;;;;;;5072026;28;20407;-44
2022/07/01 09:15:40;;;;;;;12.90;9.53;;;26.10;45.20;;;;;;5071913;28;20948;-44
2022/07/01 09:18:10;;;;;;;12.27;8.10;;;26.00;45.40;;;;;;5071959;28;20478;-46
2022/07/01 09:20:39;;;;;;;15.63;9.60;;;26.00;45.60;;;;;;5071917;28;20453;-46
2022/07/01 09:23:12;;;;;;;14.00;9.50;;;25.90;44.60;;;;;;5072017;28;20793;-44
2022/07/01 09:25:43;;;;;;;13.30;8.77;;;25.80;44.50;;;;;;5071907;28;20414;-46
2022/07/01 09:28:14;;;;;;;10.50;7.90;;;25.70;44.70;;;;;;5071862;28;21032;-45
2022/07/01 09:30:43;;;;;;;11.60;7.97;;;25.60;44.70;;;;;;5074108;28;20429;-45
2022/07/01 09:33:31;;;;;;;13.33;8.07;;;25.50;44.70;;;;;;5078462;28;20928;-44
2022/07/01 09:35:59;;;;;;;11.93;8.70;;;25.40;44.60;;;;;;5078095;28;20426;-44
2022/07/01 09:38:25;;;;;;;13.43;9.10;;;25.30;45.30;;;;;;5078417;28;20933;-43
2022/07/01 09:41:00;;;;;;;12.27;8.30;;;25.20;45.20;;;;;;5078766;28;20403;-44
2022/07/01 09:43:34;;;;;;;12.90;9.23;;;25.20;46.10;;;;;;5078736;28;20406;-44
2022/07/01 09:46:08;;;;;;;14.83;9.47;;;25.20;46.30;;;;;;5078182;28;20412;-43
2022/07/01 09:48:33;;;;;;;13.60;10.10;;;25.20;46.60;;;;;;5078763;28;20387;-45
2022/07/01 09:51:00;;;;;;;13.83;9.07;;;25.10;47.20;;;;;;5078371;28;20422;-44
2022/07/01 09:53:26;;;;;;;10.40;8.73;;;25.10;46.40;;;;;;5078302;28;20536;-44
2022/07/01 09:55:52;;;;;;;9.77;8.27;;;25.10;46.50;;;;;;5078158;28;20398;-44
2022/07/01 09:58:19;;;;;;;9.23;8.23;;;25.00;46.30;;;;;;5078278;28;20497;-43
2022/07/01 10:00:45;;;;;;;11.30;7.90;;;24.90;46.60;;;;;;5078395;28;20492;-46
2022/07/01 10:03:12;;;;;;;9.63;8.40;;;24.90;46.70;;;;;;5078287;28;20873;-44
2022/07/01 10:05:44;;;;;;;10.33;8.60;;;24.90;46.60;;;;;;5078097;28;20917;-44
2022/07/01 10:08:37;;;;;;;10.23;7.17;;;24.90;46.90;;;;;;5078402;28;20430;-43
2022/07/01 10:11:42;;;;;;;10.10;8.03;;;25.00;46.80;;;;;;5068324;28;20779;-46
2022/07/01 10:14:11;;;;;;;10.30;8.00;;;25.10;46.70;;;;;;5078238;28;20387;-45
2022/07/01 10:16:38;;;;;;;9.67;8.23;;;25.10;46.90;;;;;;5077928;28;20536;-46
2022/07/01 10:19:24;;;;;;;8.50;6.67;;;25.10;46.60;;;;;;5077884;28;20907;-44
2022/07/01 10:22:10;;;;;;;7.03;6.33;;;25.10;46.50;;;;;;5078116;28;20403;-44
2022/07/01 10:24:35;;;;;;;8.50;7.10;;;25.10;46.40;;;;;;5074081;28;20448;-44
2022/07/01 10:27:18;;;;;;;9.13;7.20;;;25.00;46.50;;;;;;5077745;28;20438;-45
2022/07/01 10:29:44;;;;;;;9.77;7.63;;;25.10;46.50;;;;;;5077938;28;20192;-44
2022/07/01 10:32:29;;;;;;;10.47;7.20;;;25.10;47.20;;;;;;5077943;28;20413;-45
2022/07/01 10:35:06;;;;;;;8.57;7.13;;;25.20;46.60;;;;;;5078018;28;20164;-44
2022/07/01 10:37:32;;;;;;;8.73;7.83;;;25.30;46.20;;;;;;5077740;28;20413;-44
2022/07/01 10:39:58;;;;;;;9.70;6.73;;;25.20;45.70;;;;;;5077889;28;20430;-44
2022/07/01 10:42:37;;;;;;;8.60;7.00;;;25.20;45.70;;;;;;5075700;28;20406;-44
2022/07/01 10:45:11;;;;;;;9.30;6.47;;;25.20;46.30;;;;;;5074802;28;20431;-44
2022/07/01 10:47:39;;;;;;;8.13;6.20;;;25.20;46.40;;;;;;5074440;28;20454;-43
2022/07/01 10:50:12;;;;;;;10.07;6.40;;;25.20;46.40;;;;;;5074600;28;20454;-45
2022/07/01 10:52:57;;;;;;;7.30;6.03;;;25.30;46.40;;;;;;5074698;28;20391;-45
2022/07/01 10:55:37;;;;;;;6.33;5.73;;;25.30;45.80;;;;;;5074524;28;20486;-45
2022/07/01 10:58:02;;;;;;;6.70;6.00;;;25.40;46.10;;;;;;5074581;28;20445;-45
2022/07/01 11:00:31;;;;;;;10.50;5.87;;;25.40;46.00;;;;;;5074260;28;20466;-43
2022/07/01 11:03:09;;;;;;;6.23;5.03;;;25.40;45.70;;;;;;5074767;28;20203;-44
2022/07/01 11:05:36;;;;;;;10.43;5.80;;;25.50;45.90;;;;;;5074215;28;20901;-43
2022/07/01 11:08:05;;;;;;;6.47;5.47;;;25.50;45.60;;;;;;5074324;28;20455;-43
2022/07/01 11:10:31;;;;;;;6.70;6.03;;;25.50;45.70;;;;;;5074163;28;20430;-45
2022/07/01 11:12:57;;;;;;;6.80;5.57;;;25.40;45.70;;;;;;5074138;28;20414;-44
2022/07/01 11:15:22;;;;;;;7.40;5.87;;;25.30;45.50;;;;;;5074426;28;20395;-44
2022/07/01 11:17:49;;;;;;;6.13;5.20;;;25.30;45.50;;;;;;5074011;28;20214;-46
2022/07/01 11:20:16;;;;;;;5.33;4.83;;;25.20;45.40;;;;;;5073980;28;20446;-44
2022/07/01 11:22:42;;;;;;;5.60;4.60;;;25.20;45.50;;;;;;5074129;28;20431;-43
2022/07/01 11:25:11;;;;;;;5.10;4.00;;;25.10;45.60;;;;;;5073952;28;20508;-43
2022/07/01 11:27:38;;;;;;;4.10;3.07;;;25.10;45.60;;;;;;5073729;28;20569;-45
2022/07/01 11:30:14;;;;;;;3.47;3.17;;;25.00;44.50;;;;;;5073779;28;20423;-44
2022/07/01 11:32:47;;;;;;;3.97;3.10;;;24.90;45.20;;;;;;5074042;28;20391;-44
2022/07/01 11:41:06;;;;;;;3.97;3.57;;;24.60;46.40;;;;;;5074007;28;20402;-44
2022/07/01 11:43:37;;;;;;;6.30;5.03;;;24.40;46.90;;;;;;5073611;28;20763;-43
2022/07/01 11:46:05;;;;;;;14.03;5.30;;;24.40;47.10;;;;;;5073218;28;20410;-44
2022/07/01 11:48:40;;;;;;;7.80;6.67;;;24.20;47.40;;;;;;5073425;28;20933;-45
2022/07/01 11:51:23;;;;;;;6.50;5.80;;;24.10;47.60;;;;;;5073764;28;20486;-43
2022/07/01 11:53:51;;;;;;;6.77;5.53;;;24.10;47.60;;;;;;5073566;28;20479;-45
2022/07/01 11:56:31;;;;;;;10.43;6.53;;;24.00;48.00;;;;;;5073216;28;20398;-45
2022/07/01 11:58:58;;;;;;;5.23;4.73;;;24.00;47.80;;;;;;5073497;28;20433;-43
2022/07/01 12:01:25;;;;;;;5.87;5.20;;;23.90;47.70;;;;;;5073193;28;20486;-44
2022/07/01 12:03:51;;;;;;;5.70;5.20;;;23.90;47.70;;;;;;5073550;28;20807;-43
2022/07/01 12:06:18;;;;;;;6.60;4.60;;;23.80;47.80;;;;;;5072964;28;20407;-43
2022/07/01 12:08:46;;;;;;;4.90;4.40;;;23.80;47.90;;;;;;5073061;28;20406;-44
2022/07/01 12:11:12;;;;;;;5.30;4.57;;;23.80;47.90;;;;;;5072924;28;20771;-44
2022/07/01 12:13:38;;;;;;;5.23;4.30;;;23.80;48.30;;;;;;5073026;28;20410;-43
2022/07/01 12:16:11;;;;;;;5.50;4.13;;;23.70;48.60;;;;;;5072889;28;20410;-43
2022/07/01 12:18:38;;;;;;;6.13;4.50;;;23.60;48.70;;;;;;5072772;28;20403;-43
2022/07/01 12:21:04;;;;;;;5.50;4.33;;;23.60;49.40;;;;;;5071675;28;20415;-43
2022/07/01 12:23:32;;;;;;;10.30;4.50;;;23.60;49.50;;;;;;5072783;28;20490;-45
2022/07/01 12:25:58;;;;;;;5.60;4.73;;;23.60;49.70;;;;;;5072602;28;20415;-44
2022/07/01 12:28:29;;;;;;;7.10;5.33;;;23.50;50.40;;;;;;5073070;28;20422;-44
2022/07/01 12:31:01;;;;;;;5.60;4.70;;;23.50;50.80;;;;;;5072708;28;20395;-46
2022/07/01 12:33:27;;;;;;;5.60;4.13;;;23.50;50.50;;;;;;5072690;28;20967;-44
2022/07/01 12:35:54;;;;;;;6.23;5.30;;;23.50;50.70;;;;;;5071149;28;20441;-43
2022/07/01 12:38:20;;;;;;;5.57;4.03;;;23.50;51.00;;;;;;5072489;28;20399;-45
2022/07/01 12:40:46;;;;;;;6.80;4.37;;;23.50;51.30;;;;;;5072434;28;20418;-43
2022/07/01 12:43:29;;;;;;;4.03;3.50;;;23.50;51.60;;;;;;5072611;28;20196;-44
2022/07/01 12:45:58;;;;;;;3.73;3.10;;;23.50;51.50;;;;;;5072415;28;20180;-44
2022/07/01 12:48:25;;;;;;;4.87;4.00;;;23.40;51.00;;;;;;5072732;28;20442;-42
2022/07/01 12:50:57;;;;;;;5.60;3.90;;;23.40;51.10;;;;;;5072218;28;20998;-45
2022/07/01 12:53:25;;;;;;;11.30;4.77;;;23.40;51.70;;;;;;5072427;28;20399;-45
2022/07/01 12:55:56;;;;;;;4.77;3.30;;;23.30;51.30;;;;;;5072090;28;20902;-44
2022/07/01 12:58:24;;;;;;;4.30;3.70;;;23.30;51.90;;;;;;5072251;28;20457;-43
2022/07/01 13:00:57;;;;;;;5.43;3.97;;;23.30;52.30;;;;;;5072222;28;20434;-43
2022/07/01 13:03:24;;;;;;;4.73;4.13;;;23.30;52.10;;;;;;5072183;28;20415;-43
2022/07/01 13:05:52;;;;;;;4.87;3.13;;;23.30;52.30;;;;;;5071703;28;20800;-43